Mount Angel, Oregon
Current Conditions -  °F | °C
As of 12:53 AM on Thursday 18 Dec 2014 (Local Time) from KUAO Reporting Station
Overcast Overcast  
Wind Chill: 46°   Ceiling: 3000
Heat Index: 46°   Visibility: 10mi
Dew Point: 44°   Wind: 0mph
Humidity: 93%   Direction: NA
Pressure: 29.98"   Gusts: NA
Location:  45.07°N, 122.8°W
Report Text: KUAO 180853Z AUTO 00000KT 10SM OVC030 08/07 A2998 RMK AO2 SLP152 60001 T00780067 50000
Loading
Personal Weather Stations






























Interactive Weather Map New forecast layout! Learn more

10-Day Weather Forecast

Advertisements
Track Severe Weather on mobile